createdAt,value
2018-06-09T00:00:05.957Z,54.40
2018-06-09T00:01:06.063Z,55.10
2018-06-09T00:02:05.997Z,56.30
2018-06-09T00:03:05.983Z,56.30
2018-06-09T00:04:06.000Z,58.60
2018-06-09T00:05:06.035Z,57.20
2018-06-09T00:06:06.147Z,53.80
2018-06-09T00:07:06.064Z,53.00
2018-06-09T00:08:06.067Z,52.70
2018-06-09T00:09:06.060Z,55.00
2018-06-09T00:10:06.093Z,56.20
2018-06-09T00:11:06.186Z,59.70
2018-06-09T00:12:06.117Z,58.40
2018-06-09T00:13:06.105Z,61.60
2018-06-09T00:14:06.148Z,58.10
2018-06-09T00:15:06.127Z,59.60
2018-06-09T00:16:06.143Z,59.30
2018-06-09T00:17:06.332Z,60.40
2018-06-09T00:18:06.176Z,63.30
2018-06-09T00:19:06.191Z,63.00
2018-06-09T00:20:06.189Z,59.80
2018-06-09T00:21:06.219Z,60.10
2018-06-09T00:22:06.364Z,59.30
2018-06-09T00:23:06.249Z,57.40
2018-06-09T00:24:06.250Z,59.00
2018-06-09T00:25:06.246Z,60.20
2018-06-09T00:26:06.262Z,62.30
2018-06-09T00:27:06.426Z,62.70
2018-06-09T00:28:06.277Z,62.60
2018-06-09T00:29:06.294Z,63.60
2018-06-09T00:30:06.311Z,65.20
2018-06-09T00:31:06.320Z,63.90
2018-06-09T00:32:06.507Z,64.40
2018-06-09T00:33:06.355Z,66.00
2018-06-09T00:34:06.367Z,66.40
2018-06-09T00:35:06.399Z,68.80
2018-06-09T00:36:06.380Z,69.20
2018-06-09T00:37:06.549Z,67.50
2018-06-09T00:38:06.405Z,66.10
2018-06-09T00:39:06.437Z,67.90
2018-06-09T00:40:06.434Z,67.40
2018-06-09T00:41:06.454Z,69.30
2018-06-09T00:42:06.549Z,67.20
2018-06-09T00:43:06.460Z,68.60
2018-06-09T00:44:06.506Z,67.60
2018-06-09T00:45:06.650Z,69.20
2018-06-09T00:46:06.705Z,71.40
2018-06-09T00:47:06.829Z,71.80
2018-06-09T00:48:06.601Z,73.10
2018-06-09T00:49:06.536Z,71.30
2018-06-09T00:50:06.553Z,72.20
2018-06-09T00:51:06.563Z,73.20
2018-06-09T00:52:06.726Z,75.60
2018-06-09T00:53:06.586Z,77.80
2018-06-09T00:54:06.597Z,74.70
2018-06-09T00:55:06.615Z,76.20
2018-06-09T00:56:06.619Z,74.80
2018-06-09T00:57:06.757Z,75.60
2018-06-09T00:58:06.668Z,75.30
2018-06-09T00:59:06.669Z,76.00
2018-06-09T01:00:06.670Z,74.70
2018-06-09T01:01:06.681Z,74.50
2018-06-09T01:02:06.846Z,75.30
2018-06-09T01:03:06.729Z,78.30
2018-06-09T01:04:06.722Z,78.50
2018-06-09T01:05:06.730Z,75.10
2018-06-09T01:06:06.766Z,72.40
2018-06-09T01:07:06.902Z,67.10
2018-06-09T01:08:06.761Z,67.50
2018-06-09T01:09:06.800Z,64.70
2018-06-09T01:10:06.786Z,65.40
2018-06-09T01:11:06.829Z,64.50
2018-06-09T01:12:06.938Z,63.80
2018-06-09T01:13:06.819Z,63.60
2018-06-09T01:14:06.864Z,69.30
2018-06-09T01:15:06.869Z,66.20
2018-06-09T01:16:06.862Z,68.20
2018-06-09T01:17:06.995Z,68.40
2018-06-09T01:18:06.878Z,68.10
2018-06-09T01:19:06.891Z,69.30
2018-06-09T01:20:06.904Z,65.80
2018-06-09T01:21:06.928Z,65.60
2018-06-09T01:22:07.077Z,65.60
2018-06-09T01:23:06.939Z,64.60
2018-06-09T01:24:06.976Z,61.50
2018-06-09T01:25:06.956Z,62.30
2018-06-09T01:26:06.976Z,60.80
2018-06-09T01:27:07.132Z,65.00
2018-06-09T01:28:07.000Z,62.90
2018-06-09T01:29:07.039Z,62.60
2018-06-09T01:30:07.014Z,62.10
2018-06-09T01:31:07.044Z,63.00
2018-06-09T01:32:07.152Z,63.20
2018-06-09T01:33:07.057Z,63.80
2018-06-09T01:34:07.094Z,63.30
2018-06-09T01:35:07.077Z,60.90
2018-06-09T01:36:07.087Z,61.80
2018-06-09T01:37:07.264Z,60.20
2018-06-09T01:38:07.135Z,60.60
2018-06-09T01:39:07.150Z,61.50
2018-06-09T01:40:07.140Z,62.40
2018-06-09T01:41:07.173Z,61.10
2018-06-09T01:42:07.154Z,61.50
2018-06-09T01:43:07.192Z,61.20
2018-06-09T01:44:07.180Z,61.60
2018-06-09T01:45:07.214Z,62.00
2018-06-09T01:46:07.215Z,61.60
2018-06-09T01:47:07.238Z,60.20
2018-06-09T01:48:07.405Z,58.80
2018-06-09T01:49:07.262Z,55.40
2018-06-09T01:50:07.274Z,55.10
2018-06-09T01:51:07.263Z,53.30
2018-06-09T01:52:07.298Z,53.00
2018-06-09T01:53:07.409Z,50.70
2018-06-09T01:54:07.290Z,51.90
2018-06-09T01:55:07.307Z,50.80
2018-06-09T01:56:07.313Z,48.60
2018-06-09T01:57:07.331Z,48.30
2018-06-09T01:58:07.443Z,48.90
2018-06-09T01:59:07.347Z,48.60
2018-06-09T02:00:07.360Z,49.00
2018-06-09T02:01:07.400Z,48.00
2018-06-09T02:02:07.411Z,48.30
2018-06-09T02:03:07.576Z,47.30
2018-06-09T02:04:07.408Z,46.10
2018-06-09T02:05:07.445Z,45.50
2018-06-09T02:06:07.458Z,44.70
2018-06-09T02:07:07.441Z,44.70
2018-06-09T02:08:07.488Z,43.40
2018-06-09T02:09:07.492Z,44.50
2018-06-09T02:10:07.474Z,44.80
2018-06-09T02:11:07.486Z,44.90
2018-06-09T02:12:07.497Z,45.10
2018-06-09T02:13:07.609Z,44.60
2018-06-09T02:14:07.525Z,45.30
2018-06-09T02:15:07.529Z,46.00
2018-06-09T02:16:07.549Z,45.50
2018-06-09T02:17:07.552Z,44.90
2018-06-09T02:18:07.692Z,44.70
2018-06-09T02:19:07.583Z,45.30
2018-06-09T02:20:07.597Z,43.00
2018-06-09T02:21:07.601Z,40.80
2018-06-09T02:22:07.632Z,41.00
2018-06-09T02:23:07.773Z,41.80
2018-06-09T02:24:07.663Z,41.80
2018-06-09T02:25:07.676Z,41.50
2018-06-09T02:26:07.656Z,42.20
2018-06-09T02:27:07.670Z,42.70
2018-06-09T02:28:07.829Z,42.20
2018-06-09T02:29:07.693Z,41.50
2018-06-09T02:30:07.735Z,42.70
2018-06-09T02:31:07.730Z,38.80
2018-06-09T02:32:07.752Z,38.60
2018-06-09T02:33:07.919Z,38.90
2018-06-09T02:34:07.773Z,36.60
2018-06-09T02:35:07.769Z,38.30
2018-06-09T02:36:07.799Z,37.70
2018-06-09T02:37:07.810Z,38.40
2018-06-09T02:38:07.945Z,39.10
2018-06-09T02:39:07.805Z,40.80
2018-06-09T02:40:07.827Z,38.50
2018-06-09T02:41:07.840Z,39.20
2018-06-09T02:42:07.867Z,38.80
2018-06-09T02:43:08.003Z,39.00
2018-06-09T02:44:07.892Z,39.40
2018-06-09T02:45:07.901Z,39.90
2018-06-09T02:46:07.889Z,38.10
2018-06-09T02:47:07.901Z,39.00
2018-06-09T02:48:08.017Z,38.10
2018-06-09T02:49:07.919Z,38.80
2018-06-09T02:50:07.940Z,36.90
2018-06-09T02:51:07.945Z,33.70
2018-06-09T02:52:07.952Z,36.20
2018-06-09T02:53:08.070Z,36.80
2018-06-09T02:54:08.017Z,37.50
2018-06-09T02:55:08.014Z,38.00
2018-06-09T02:56:08.029Z,38.70
2018-06-09T02:57:08.005Z,39.60
2018-06-09T02:58:08.185Z,41.00
2018-06-09T02:59:08.034Z,41.70
2018-06-09T03:00:08.052Z,40.70
2018-06-09T03:01:08.083Z,38.40
2018-06-09T03:02:08.093Z,39.90
2018-06-09T03:03:08.085Z,38.20
2018-06-09T03:04:08.215Z,37.70
2018-06-09T03:05:08.129Z,36.80
2018-06-09T03:06:08.112Z,35.80
2018-06-09T03:07:08.151Z,35.70
2018-06-09T03:08:08.153Z,34.20
2018-06-09T03:09:08.327Z,35.60
2018-06-09T03:10:08.156Z,34.30
2018-06-09T03:11:08.180Z,35.70
2018-06-09T03:12:08.212Z,34.60
2018-06-09T03:13:08.198Z,35.70
2018-06-09T03:14:08.307Z,35.20
2018-06-09T03:15:08.220Z,35.90
2018-06-09T03:16:08.231Z,37.90
2018-06-09T03:17:08.233Z,37.80
2018-06-09T03:18:08.254Z,36.20
2018-06-09T03:19:08.440Z,36.20
2018-06-09T03:20:08.285Z,35.90
2018-06-09T03:21:08.283Z,34.40
2018-06-09T03:22:08.302Z,35.30
2018-06-09T03:23:08.334Z,34.50
2018-06-09T03:24:08.471Z,34.80
2018-06-09T03:25:08.331Z,35.70
2018-06-09T03:26:08.357Z,35.70
2018-06-09T03:27:08.356Z,35.10
2018-06-09T03:28:08.390Z,35.00
2018-06-09T03:29:08.524Z,32.80
2018-06-09T03:30:08.388Z,34.30
2018-06-09T03:31:08.423Z,36.30
2018-06-09T03:32:08.410Z,38.40
2018-06-09T03:33:08.430Z,36.20
2018-06-09T03:34:08.581Z,34.30
2018-06-09T03:35:08.441Z,34.80
2018-06-09T03:36:08.476Z,34.90
2018-06-09T03:37:08.460Z,35.40
2018-06-09T03:38:08.472Z,33.30
2018-06-09T03:39:08.597Z,33.50
2018-06-09T03:40:08.497Z,33.90
2018-06-09T03:41:08.506Z,34.50
2018-06-09T03:42:08.519Z,34.80
2018-06-09T03:43:08.551Z,34.70
2018-06-09T03:44:08.694Z,35.00
2018-06-09T03:45:08.581Z,35.40
2018-06-09T03:46:08.565Z,34.90
2018-06-09T03:47:08.574Z,35.20
2018-06-09T03:48:08.611Z,34.50
2018-06-09T03:49:08.752Z,33.60
2018-06-09T03:50:08.634Z,33.50
2018-06-09T03:51:08.632Z,33.90
2018-06-09T03:52:08.659Z,33.70
2018-06-09T03:53:08.654Z,34.90
2018-06-09T03:54:08.762Z,32.30
2018-06-09T03:55:08.664Z,31.00
2018-06-09T03:56:08.704Z,30.90
2018-06-09T03:57:08.688Z,31.40
2018-06-09T03:58:08.697Z,31.40
2018-06-09T03:59:08.812Z,30.20
2018-06-09T04:00:08.744Z,28.60
2018-06-09T04:01:08.739Z,29.30
2018-06-09T04:02:08.792Z,28.10
2018-06-09T04:03:08.781Z,28.00
2018-06-09T04:04:08.919Z,28.60
2018-06-09T04:05:08.780Z,26.80
2018-06-09T04:06:08.785Z,28.10
2018-06-09T04:07:08.824Z,28.60
2018-06-09T04:08:08.828Z,28.30
2018-06-09T04:09:08.969Z,27.80
2018-06-09T04:10:08.830Z,28.00
2018-06-09T04:11:08.834Z,31.10
2018-06-09T04:12:08.865Z,31.50
2018-06-09T04:13:08.857Z,31.40
2018-06-09T04:14:09.025Z,32.20
2018-06-09T04:15:08.888Z,31.60
2018-06-09T04:16:08.892Z,31.40
2018-06-09T04:17:08.934Z,31.70
2018-06-09T04:18:08.948Z,34.80
2018-06-09T04:19:09.039Z,35.50
2018-06-09T04:20:08.967Z,38.80
2018-06-09T04:21:08.975Z,40.50
2018-06-09T04:22:08.986Z,39.20
2018-06-09T04:23:09.000Z,43.90
2018-06-09T04:24:09.145Z,44.60
2018-06-09T04:25:08.994Z,45.40
2018-06-09T04:26:09.009Z,45.60
2018-06-09T04:27:09.021Z,45.90
2018-06-09T04:28:09.055Z,47.50
2018-06-09T04:29:09.053Z,47.60
2018-06-09T04:30:09.200Z,46.60
2018-06-09T04:31:09.063Z,46.70
2018-06-09T04:32:09.077Z,48.00
2018-06-09T04:33:09.083Z,44.70
2018-06-09T04:34:09.099Z,44.80
2018-06-09T04:35:09.258Z,42.40
2018-06-09T04:36:09.125Z,44.00
2018-06-09T04:37:09.132Z,40.30
2018-06-09T04:38:09.173Z,39.10
2018-06-09T04:39:09.152Z,40.10
2018-06-09T04:40:09.296Z,39.30
2018-06-09T04:41:09.202Z,38.70
2018-06-09T04:42:09.187Z,37.40
2018-06-09T04:43:09.215Z,38.10
2018-06-09T04:44:09.211Z,36.40
2018-06-09T04:45:09.346Z,36.30
2018-06-09T04:46:09.236Z,37.20
2018-06-09T04:47:09.249Z,37.70
2018-06-09T04:48:09.281Z,37.10
2018-06-09T04:49:09.289Z,36.40
2018-06-09T04:50:09.400Z,37.10
2018-06-09T04:51:09.294Z,37.50
2018-06-09T04:52:09.329Z,41.30
2018-06-09T04:53:09.309Z,40.60
2018-06-09T04:54:09.347Z,42.80
2018-06-09T04:55:09.482Z,43.10
2018-06-09T04:56:09.368Z,44.00
2018-06-09T04:57:09.354Z,45.70
2018-06-09T04:58:09.371Z,43.80
2018-06-09T04:59:09.380Z,45.40
2018-06-09T05:00:09.511Z,45.20
2018-06-09T05:01:09.428Z,46.20
2018-06-09T05:02:09.412Z,46.10
2018-06-09T05:03:09.432Z,45.50
2018-06-09T05:04:09.459Z,43.80
2018-06-09T05:05:09.554Z,45.60
2018-06-09T05:06:09.484Z,45.70
2018-06-09T05:07:09.502Z,43.90
2018-06-09T05:08:09.478Z,45.20
2018-06-09T05:09:09.517Z,42.60
2018-06-09T05:10:09.647Z,43.50
2018-06-09T05:11:09.510Z,43.60
2018-06-09T05:12:09.553Z,44.20
2018-06-09T05:13:09.557Z,45.70
2018-06-09T05:14:09.568Z,45.80
2018-06-09T05:15:09.704Z,45.90
2018-06-09T05:16:09.575Z,46.10
2018-06-09T05:17:09.586Z,45.60
2018-06-09T05:18:09.588Z,45.10
2018-06-09T05:19:09.630Z,46.20
2018-06-09T05:20:09.721Z,47.50
2018-06-09T05:21:09.628Z,45.80
2018-06-09T05:22:09.661Z,45.50
2018-06-09T05:23:09.670Z,45.40
2018-06-09T05:24:09.657Z,45.90
2018-06-09T05:25:09.817Z,44.60
2018-06-09T05:26:09.685Z,43.50
2018-06-09T05:27:09.692Z,42.50
2018-06-09T05:28:09.699Z,42.30
2018-06-09T05:29:09.713Z,41.20
2018-06-09T05:30:09.828Z,41.50
2018-06-09T05:31:09.758Z,41.60
2018-06-09T05:32:09.759Z,41.70
2018-06-09T05:33:09.759Z,41.90
2018-06-09T05:34:09.795Z,40.00
2018-06-09T05:35:09.880Z,41.30
2018-06-09T05:36:09.798Z,40.80
2018-06-09T05:37:09.799Z,38.90
2018-06-09T05:38:09.810Z,40.30
2018-06-09T05:39:09.850Z,41.00
2018-06-09T05:40:09.933Z,41.50
2018-06-09T05:41:09.876Z,42.10
2018-06-09T05:42:09.880Z,41.80
2018-06-09T05:43:09.867Z,42.00
2018-06-09T05:44:09.886Z,42.20
2018-06-09T05:45:10.049Z,41.90
2018-06-09T05:46:09.940Z,41.80
2018-06-09T05:47:09.940Z,43.60
2018-06-09T05:48:09.924Z,44.30
2018-06-09T05:49:09.936Z,43.60
2018-06-09T05:50:10.050Z,40.20
2018-06-09T05:51:09.987Z,41.10
2018-06-09T05:52:09.970Z,40.60
2018-06-09T05:53:09.976Z,38.60
2018-06-09T05:54:09.989Z,37.30
2018-06-09T05:55:10.100Z,37.90
2018-06-09T05:56:10.034Z,37.60
2018-06-09T05:57:10.024Z,37.20
2018-06-09T05:58:10.047Z,36.50
2018-06-09T05:59:10.071Z,36.30
2018-06-09T06:00:10.079Z,37.30
2018-06-09T06:01:10.219Z,35.30
2018-06-09T06:02:10.082Z,35.80
2018-06-09T06:03:10.100Z,36.00
2018-06-09T06:04:10.125Z,37.90
2018-06-09T06:05:10.118Z,37.10
2018-06-09T06:06:10.279Z,36.40
2018-06-09T06:07:10.137Z,36.10
2018-06-09T06:08:10.172Z,33.10
2018-06-09T06:09:10.170Z,29.80
2018-06-09T06:10:10.162Z,31.90
2018-06-09T06:11:10.350Z,31.60
2018-06-09T06:12:10.187Z,32.80
2018-06-09T06:13:10.205Z,33.00
2018-06-09T06:14:10.209Z,33.90
2018-06-09T06:15:10.216Z,35.70
2018-06-09T06:16:10.381Z,36.60
2018-06-09T06:17:10.241Z,36.20
2018-06-09T06:18:10.250Z,40.10
2018-06-09T06:19:10.293Z,39.00
2018-06-09T06:20:10.298Z,38.40
2018-06-09T06:21:10.411Z,38.20
2018-06-09T06:22:10.293Z,37.40
2018-06-09T06:23:10.311Z,38.60
2018-06-09T06:24:10.318Z,37.20
2018-06-09T06:25:10.323Z,37.30
2018-06-09T06:26:10.516Z,35.80
2018-06-09T06:27:10.373Z,35.20
2018-06-09T06:28:10.385Z,33.80
2018-06-09T06:29:10.376Z,29.30
2018-06-09T06:30:10.383Z,30.90
2018-06-09T06:31:10.520Z,26.40
2018-06-09T06:32:10.422Z,24.50
2018-06-09T06:33:10.440Z,22.60
2018-06-09T06:34:10.429Z,21.30
2018-06-09T06:35:10.432Z,22.40
2018-06-09T06:36:10.547Z,24.10
2018-06-09T06:37:10.467Z,25.60
2018-06-09T06:38:10.483Z,25.00
2018-06-09T06:39:10.504Z,24.30
2018-06-09T06:40:10.504Z,23.60
2018-06-09T06:41:10.631Z,23.20
2018-06-09T06:42:10.514Z,21.20
2018-06-09T06:43:10.559Z,22.20
2018-06-09T06:44:10.539Z,22.00
2018-06-09T06:45:10.551Z,22.40
2018-06-09T06:46:10.709Z,22.00
2018-06-09T06:47:10.640Z,23.40
2018-06-09T06:48:10.593Z,23.30
2018-06-09T06:49:10.619Z,23.30
2018-06-09T06:50:10.631Z,25.10
2018-06-09T06:51:10.738Z,24.90
2018-06-09T06:52:10.632Z,24.80
2018-06-09T06:53:10.625Z,27.10
2018-06-09T06:54:10.673Z,27.00
2018-06-09T06:55:10.654Z,26.70
2018-06-09T06:56:10.817Z,26.60
2018-06-09T06:57:10.680Z,26.70
2018-06-09T06:58:10.721Z,26.50
2018-06-09T06:59:10.707Z,26.40
2018-06-09T07:00:10.719Z,28.10
2018-06-09T07:01:10.872Z,28.00
2018-06-09T07:02:10.856Z,28.80
2018-06-09T07:03:10.744Z,28.40
2018-06-09T07:04:10.751Z,27.90
2018-06-09T07:05:10.773Z,28.40
2018-06-09T07:06:10.953Z,28.10
2018-06-09T07:07:10.797Z,28.30
2018-06-09T07:08:10.798Z,29.20
2018-06-09T07:09:10.832Z,30.30
2018-06-09T07:10:10.817Z,30.00
2018-06-09T07:11:10.930Z,29.10
2018-06-09T07:12:10.836Z,29.90
2018-06-09T07:13:10.864Z,27.60
2018-06-09T07:14:10.889Z,28.10
2018-06-09T07:15:10.875Z,28.90
2018-06-09T07:16:10.989Z,28.10
2018-06-09T07:17:10.907Z,28.10
2018-06-09T07:18:10.908Z,29.00
2018-06-09T07:19:10.924Z,27.80
2018-06-09T07:20:10.932Z,29.60
2018-06-09T07:21:11.096Z,29.20
2018-06-09T07:22:11.029Z,30.00
2018-06-09T07:23:10.958Z,32.00
2018-06-09T07:24:10.967Z,31.40
2018-06-09T07:25:11.007Z,31.50
2018-06-09T07:26:10.993Z,30.90
2018-06-09T07:27:11.180Z,28.10
2018-06-09T07:28:11.044Z,22.50
2018-06-09T07:29:11.023Z,25.10
2018-06-09T07:30:11.033Z,24.90
2018-06-09T07:31:11.048Z,25.50
2018-06-09T07:32:11.056Z,25.10
2018-06-09T07:33:11.199Z,24.80
2018-06-09T07:34:11.093Z,23.80
2018-06-09T07:35:11.138Z,24.70
2018-06-09T07:36:11.104Z,24.70
2018-06-09T07:37:11.112Z,25.60
2018-06-09T07:38:11.228Z,26.50
2018-06-09T07:39:11.159Z,26.00
2018-06-09T07:40:11.160Z,27.30
2018-06-09T07:41:11.182Z,27.70
2018-06-09T07:42:11.165Z,27.70
2018-06-09T07:43:11.335Z,27.40
2018-06-09T07:44:11.184Z,27.30
2018-06-09T07:45:11.196Z,28.40
2018-06-09T07:46:11.210Z,27.10
2018-06-09T07:47:11.226Z,29.20
2018-06-09T07:48:11.341Z,29.10
2018-06-09T07:49:11.241Z,28.80
2018-06-09T07:50:11.276Z,29.60
2018-06-09T07:51:11.273Z,30.40
2018-06-09T07:52:11.273Z,30.80
2018-06-09T07:53:11.461Z,30.90
2018-06-09T07:54:11.365Z,32.10
2018-06-09T07:55:11.336Z,33.90
2018-06-09T07:56:11.316Z,35.10
2018-06-09T07:57:11.330Z,35.80
2018-06-09T07:58:11.440Z,35.50
2018-06-09T07:59:11.376Z,35.30
2018-06-09T08:00:11.358Z,34.90
2018-06-09T08:01:11.372Z,35.00
2018-06-09T08:02:11.380Z,31.80
2018-06-09T08:03:11.546Z,33.40
2018-06-09T08:04:11.401Z,34.50
2018-06-09T08:05:11.439Z,34.70
2018-06-09T08:06:11.457Z,33.80
2018-06-09T08:07:11.463Z,34.40
2018-06-09T08:08:11.559Z,33.10
2018-06-09T08:09:11.456Z,32.20
2018-06-09T08:10:11.467Z,31.80
2018-06-09T08:11:11.481Z,32.70
2018-06-09T08:12:11.520Z,30.60
2018-06-09T08:13:11.653Z,29.50
2018-06-09T08:14:11.537Z,29.70
2018-06-09T08:15:11.523Z,29.80
2018-06-09T08:16:11.533Z,30.50
2018-06-09T08:17:11.576Z,30.80
2018-06-09T08:18:11.699Z,29.60
2018-06-09T08:19:11.570Z,30.50
2018-06-09T08:20:11.589Z,30.00
2018-06-09T08:21:11.600Z,30.40
2018-06-09T08:22:11.598Z,31.50
2018-06-09T08:23:11.779Z,31.60
2018-06-09T08:24:11.622Z,31.40
2018-06-09T08:25:11.634Z,30.80
2018-06-09T08:26:11.671Z,31.40
2018-06-09T08:27:11.664Z,32.40
2018-06-09T08:28:11.819Z,32.10
2018-06-09T08:29:11.730Z,32.40
2018-06-09T08:30:11.694Z,32.50
2018-06-09T08:31:11.727Z,32.20
2018-06-09T08:32:11.713Z,32.10
2018-06-09T08:33:11.873Z,32.50
2018-06-09T08:34:11.731Z,31.10
2018-06-09T08:35:11.769Z,32.20
2018-06-09T08:36:11.898Z,32.70
2018-06-09T08:37:11.766Z,31.90
2018-06-09T08:38:11.925Z,32.30
2018-06-09T08:39:11.813Z,34.00
2018-06-09T08:40:11.810Z,31.60
2018-06-09T08:41:11.814Z,33.20
2018-06-09T08:42:11.845Z,33.40
2018-06-09T08:43:11.983Z,33.20
2018-06-09T08:44:11.867Z,34.00
2018-06-09T08:45:11.881Z,35.30
2018-06-09T08:46:11.893Z,35.30
2018-06-09T08:47:11.879Z,35.30
2018-06-09T08:48:12.036Z,35.70
2018-06-09T08:49:11.893Z,36.40
2018-06-09T08:50:11.937Z,36.80
2018-06-09T08:51:11.922Z,36.40
2018-06-09T08:52:11.957Z,37.00
2018-06-09T08:53:11.940Z,37.10
2018-06-09T08:54:12.131Z,35.80
2018-06-09T08:55:11.984Z,38.80
2018-06-09T08:56:12.004Z,38.90
2018-06-09T08:57:12.013Z,40.40
2018-06-09T08:58:12.012Z,40.30
2018-06-09T08:59:12.038Z,40.50
2018-06-09T09:00:12.174Z,40.20
2018-06-09T09:01:12.026Z,42.40
2018-06-09T09:02:12.043Z,41.70
2018-06-09T09:03:12.086Z,42.40
2018-06-09T09:04:12.069Z,43.00
2018-06-09T09:05:12.259Z,46.20
2018-06-09T09:06:12.115Z,51.40
2018-06-09T09:07:12.106Z,51.60
2018-06-09T09:08:12.113Z,51.00
2018-06-09T09:09:12.137Z,47.30
2018-06-09T09:10:12.235Z,48.90
2018-06-09T09:11:12.151Z,47.30
2018-06-09T09:12:12.161Z,48.10
2018-06-09T09:13:12.202Z,51.50
2018-06-09T09:14:12.178Z,55.20
2018-06-09T09:15:12.345Z,55.40
2018-06-09T09:16:12.203Z,62.70
2018-06-09T09:17:12.218Z,63.70
2018-06-09T09:18:12.229Z,70.60
2018-06-09T09:19:12.248Z,66.00
2018-06-09T09:20:12.346Z,61.20
2018-06-09T09:21:12.258Z,69.50
2018-06-09T09:22:12.275Z,67.40
2018-06-09T09:23:12.303Z,60.80
2018-06-09T09:24:12.317Z,58.80
2018-06-09T09:25:12.449Z,58.50
2018-06-09T09:26:12.345Z,57.00
2018-06-09T09:27:12.322Z,59.30
2018-06-09T09:28:12.335Z,60.00
2018-06-09T09:29:12.344Z,58.90
2018-06-09T09:30:12.505Z,58.70
2018-06-09T09:31:12.392Z,57.70
2018-06-09T09:32:12.483Z,57.90
2018-06-09T09:33:12.414Z,56.70
2018-06-09T09:34:12.400Z,55.10
2018-06-09T09:35:12.509Z,53.10
2018-06-09T09:36:12.421Z,51.70
2018-06-09T09:37:12.435Z,51.50
2018-06-09T09:38:12.469Z,51.10
2018-06-09T09:39:12.461Z,49.20
2018-06-09T09:40:12.592Z,50.70
2018-06-09T09:41:12.506Z,49.70
2018-06-09T09:42:12.488Z,48.80
2018-06-09T09:43:12.526Z,48.10
2018-06-09T09:44:12.515Z,47.10
2018-06-09T09:45:12.648Z,47.30
2018-06-09T09:46:12.555Z,47.60
2018-06-09T09:47:12.545Z,49.60
2018-06-09T09:48:12.560Z,48.60
2018-06-09T09:49:12.579Z,48.60
2018-06-09T09:50:12.706Z,46.80
2018-06-09T09:51:12.590Z,48.90
2018-06-09T09:52:12.605Z,47.60
2018-06-09T09:53:12.639Z,47.80
2018-06-09T09:54:12.634Z,49.30
2018-06-09T09:55:12.742Z,47.70
2018-06-09T09:56:12.655Z,47.80
2018-06-09T09:57:12.661Z,48.30
2018-06-09T09:58:12.673Z,48.60
2018-06-09T09:59:12.690Z,49.60
2018-06-09T10:00:12.840Z,51.00
2018-06-09T10:01:12.715Z,50.60
2018-06-09T10:02:12.716Z,51.50
2018-06-09T10:03:12.727Z,51.70
2018-06-09T10:04:12.762Z,52.90
2018-06-09T10:05:12.924Z,52.60
2018-06-09T10:06:12.784Z,52.10
2018-06-09T10:07:12.777Z,53.00
2018-06-09T10:08:12.814Z,53.10
2018-06-09T10:09:12.796Z,53.30
2018-06-09T10:10:12.932Z,52.50
2018-06-09T10:11:12.849Z,54.20
2018-06-09T10:12:12.851Z,53.80
2018-06-09T10:13:12.840Z,52.90
2018-06-09T10:14:12.853Z,51.80
2018-06-09T10:15:12.986Z,51.00
2018-06-09T10:16:12.899Z,49.50
2018-06-09T10:17:12.883Z,49.00
2018-06-09T10:18:12.893Z,49.50
2018-06-09T10:19:12.939Z,49.80
2018-06-09T10:20:13.084Z,48.30
2018-06-09T10:21:12.969Z,48.00
2018-06-09T10:22:12.969Z,47.00
2018-06-09T10:23:12.981Z,46.50
2018-06-09T10:24:12.990Z,46.10
2018-06-09T10:25:12.976Z,44.80
2018-06-09T10:26:13.098Z,45.00
2018-06-09T10:27:13.006Z,43.60
2018-06-09T10:28:13.034Z,44.10
2018-06-09T10:29:13.022Z,43.90
2018-06-09T10:30:13.064Z,44.20
2018-06-09T10:31:13.170Z,43.10
2018-06-09T10:32:13.080Z,42.00
2018-06-09T10:33:13.095Z,44.10
2018-06-09T10:34:13.133Z,44.50
2018-06-09T10:35:13.153Z,42.50
2018-06-09T10:36:13.309Z,42.70
2018-06-09T10:37:13.183Z,45.10
2018-06-09T10:38:13.180Z,42.70
2018-06-09T10:39:13.197Z,42.30
2018-06-09T10:40:13.217Z,42.80
2018-06-09T10:41:13.340Z,37.30
2018-06-09T10:42:13.173Z,39.90
2018-06-09T10:43:13.183Z,40.40
2018-06-09T10:44:13.195Z,41.30
2018-06-09T10:45:13.251Z,42.30
2018-06-09T10:46:13.370Z,39.60
2018-06-09T10:47:13.228Z,40.00
2018-06-09T10:48:13.241Z,37.70
2018-06-09T10:49:13.258Z,38.20
2018-06-09T10:50:13.267Z,39.80
2018-06-09T10:51:13.379Z,38.80
2018-06-09T10:52:13.310Z,38.30
2018-06-09T10:53:13.322Z,36.60
2018-06-09T10:54:13.330Z,31.60
2018-06-09T10:55:13.329Z,34.40
2018-06-09T10:56:13.434Z,32.00
2018-06-09T10:57:13.358Z,28.80
2018-06-09T10:58:13.363Z,30.00
2018-06-09T10:59:13.396Z,31.40
2018-06-09T11:00:13.413Z,32.20
2018-06-09T11:01:13.556Z,34.50
2018-06-09T11:02:13.444Z,35.40
2018-06-09T11:03:13.438Z,34.20
2018-06-09T11:04:13.460Z,34.90
2018-06-09T11:05:13.463Z,35.10
2018-06-09T11:06:13.619Z,34.50
2018-06-09T11:07:13.474Z,33.70
2018-06-09T11:08:13.484Z,31.60
2018-06-09T11:09:13.496Z,29.00
2018-06-09T11:10:13.524Z,25.30
2018-06-09T11:11:13.655Z,25.80
2018-06-09T11:12:13.560Z,25.80
2018-06-09T11:13:13.577Z,24.70
2018-06-09T11:14:13.560Z,26.40
2018-06-09T11:15:13.600Z,28.70
2018-06-09T11:16:13.687Z,26.70
2018-06-09T11:17:13.597Z,26.40
2018-06-09T11:18:13.659Z,27.10
2018-06-09T11:19:13.621Z,24.60
2018-06-09T11:20:13.663Z,22.80
2018-06-09T11:21:13.825Z,23.70
2018-06-09T11:22:13.667Z,22.60
2018-06-09T11:23:13.671Z,22.30
2018-06-09T11:24:13.708Z,22.80
2018-06-09T11:25:13.706Z,21.80
2018-06-09T11:26:13.888Z,18.80
2018-06-09T11:27:13.734Z,20.70
2018-06-09T11:28:13.757Z,19.60
2018-06-09T11:29:13.743Z,20.40
2018-06-09T11:30:13.767Z,19.70
2018-06-09T11:31:13.924Z,20.50
2018-06-09T11:32:13.778Z,20.80
2018-06-09T11:33:13.790Z,21.90
2018-06-09T11:34:13.831Z,23.30
2018-06-09T11:35:13.851Z,22.20
2018-06-09T11:36:13.938Z,20.20
2018-06-09T11:37:13.875Z,20.80
2018-06-09T11:38:13.882Z,22.60
2018-06-09T11:39:13.903Z,22.10
2018-06-09T11:40:13.905Z,24.90
2018-06-09T11:41:14.020Z,25.70
2018-06-09T11:42:13.905Z,27.00
2018-06-09T11:43:13.914Z,26.90
2018-06-09T11:44:13.928Z,27.50
2018-06-09T11:45:13.956Z,25.50
2018-06-09T11:46:13.982Z,26.90
2018-06-09T11:47:14.206Z,28.10
2018-06-09T11:48:13.976Z,26.50
2018-06-09T11:49:13.994Z,27.90
2018-06-09T11:50:14.001Z,27.10
2018-06-09T11:51:14.027Z,26.20
2018-06-09T11:52:14.156Z,25.80
2018-06-09T11:53:14.041Z,26.10
2018-06-09T11:54:14.060Z,24.90
2018-06-09T11:55:14.065Z,25.10
2018-06-09T11:56:14.092Z,24.50
2018-06-09T11:57:14.207Z,26.70
2018-06-09T11:58:14.103Z,26.40
2018-06-09T11:59:14.114Z,28.60
2018-06-09T12:00:14.129Z,29.40
2018-06-09T12:01:14.145Z,29.80
2018-06-09T12:02:14.287Z,26.10
2018-06-09T12:03:14.181Z,26.00
2018-06-09T12:04:14.209Z,27.20
2018-06-09T12:05:14.192Z,24.40
2018-06-09T12:06:14.230Z,24.80
2018-06-09T12:07:14.323Z,23.10
2018-06-09T12:08:14.230Z,23.10
2018-06-09T12:09:14.270Z,21.30
2018-06-09T12:10:14.249Z,22.10
2018-06-09T12:11:14.269Z,21.00
2018-06-09T12:12:14.453Z,21.30
2018-06-09T12:13:14.293Z,21.70
2018-06-09T12:14:14.303Z,20.20
2018-06-09T12:15:14.316Z,18.20
2018-06-09T12:16:14.325Z,17.80
2018-06-09T12:17:14.491Z,17.10
2018-06-09T12:18:14.380Z,17.40
2018-06-09T12:19:14.393Z,17.50
2018-06-09T12:20:14.388Z,16.50
2018-06-09T12:21:14.419Z,19.00
2018-06-09T12:22:14.506Z,18.10
2018-06-09T12:23:14.420Z,16.90
2018-06-09T12:24:14.440Z,18.20
2018-06-09T12:25:14.435Z,17.10
2018-06-09T12:26:14.485Z,17.70
2018-06-09T12:27:14.642Z,18.10
2018-06-09T12:28:14.495Z,18.50
2018-06-09T12:29:14.526Z,17.20
2018-06-09T12:30:14.529Z,17.40
2018-06-09T12:31:14.515Z,17.30
2018-06-09T12:32:14.657Z,17.00
2018-06-09T12:33:14.571Z,17.70
2018-06-09T12:34:14.567Z,17.40
2018-06-09T12:35:14.565Z,16.90
2018-06-09T12:36:14.613Z,16.40
2018-06-09T12:37:14.747Z,17.50
2018-06-09T12:38:14.636Z,17.10
2018-06-09T12:39:14.649Z,20.70
2018-06-09T12:40:14.637Z,21.00
2018-06-09T12:41:14.646Z,21.30
2018-06-09T12:42:14.756Z,20.50
2018-06-09T12:43:14.677Z,18.90
2018-06-09T12:44:14.684Z,18.50
2018-06-09T12:45:14.702Z,15.30
2018-06-09T12:46:14.741Z,13.50
2018-06-09T12:47:14.909Z,16.20
2018-06-09T12:48:14.742Z,15.20
2018-06-09T12:49:14.779Z,17.80
2018-06-09T12:50:14.765Z,19.50
2018-06-09T12:51:14.806Z,20.20
2018-06-09T12:52:14.946Z,20.20